LDOS

Osijek Airport

Osijek, Croatia
TAF LDOS 230525Z 2306/2406 30006KT CAVOK TX29/2314Z TN12/2404Z BECMG 2313/2315 10006KT
Issued Valid From Valid To
Apr-23 @ 05:25 UTC
(4 hours ago)
Apr-23 @ 06:00 UTC
(4 hours ago)
Apr-24 @ 06:00 UTC
(in 20 hours)
Apr-23 @ 06:00 to Apr-23 @ 13:00
TAF LDOS 230525Z 2306/2406 30006KT CAVOK TX29/2314Z TN12/2404Z
Wind Visibility Clouds
300° at 6 knots 10,000+ meters
  • No significant clouds
Becoming Apr-23 @ 13:00 to Apr-24 @ 06:00
BECMG 2313/2315 10006KT
Wind Visibility Clouds
100° at 6 knots 10,000+ meters
  • No significant clouds
TAF LDOS 230525Z 2306/2406 30006KT CAVOK TX29/2314Z TN12/2404Z BECMG 2313/2315 10006KT
Issued Apr-23 @ 05:25 UTC
(4 hours ago)
Valid From Apr-23 @ 06:00 UTC
(4 hours ago)
Valid To Apr-24 @ 06:00 UTC
(in 20 hours)
Apr-23 @ 06:00 - Apr-23 @ 13:00
Wind Visibility
300° at 6 knots 10,000+ meters
Clouds
  • No significant clouds
Becoming Apr-23 @ 13:00 - Apr-24 @ 06:00
Wind Visibility
100° at 6 knots 10,000+ meters
Clouds
  • No significant clouds